createdAt,value
2023-07-03T00:00:41.981Z,15.57
2023-07-03T00:01:42.012Z,15.54
2023-07-03T00:02:41.978Z,15.57
2023-07-03T00:03:41.998Z,15.53
2023-07-03T00:04:42.034Z,15.56
2023-07-03T00:05:41.939Z,15.54
2023-07-03T00:06:41.946Z,15.56
2023-07-03T00:07:41.913Z,15.59
2023-07-03T00:08:41.900Z,15.59
2023-07-03T00:09:41.873Z,15.62
2023-07-03T00:10:41.862Z,15.60
2023-07-03T00:11:41.856Z,15.56
2023-07-03T00:12:41.846Z,15.54
2023-07-03T00:13:41.881Z,15.49
2023-07-03T00:14:41.824Z,15.50
2023-07-03T00:15:41.827Z,15.50
2023-07-03T00:16:41.867Z,15.51
2023-07-03T00:17:41.883Z,15.53
2023-07-03T00:18:41.789Z,15.51
2023-07-03T00:19:41.766Z,15.53
2023-07-03T00:20:41.754Z,15.53
2023-07-03T00:21:41.739Z,15.53
2023-07-03T00:22:41.734Z,15.53
2023-07-03T00:23:41.740Z,15.54
2023-07-03T00:24:41.724Z,15.56
2023-07-03T00:25:41.707Z,15.56
2023-07-03T00:26:41.694Z,15.56
2023-07-03T00:27:41.674Z,15.57
2023-07-03T00:28:41.675Z,15.60
2023-07-03T00:29:41.668Z,15.54
2023-07-03T00:30:41.654Z,15.54
2023-07-03T00:31:41.655Z,15.54
2023-07-03T00:32:41.680Z,15.57
2023-07-03T00:33:41.611Z,15.54
2023-07-03T00:34:41.601Z,15.57
2023-07-03T00:35:41.598Z,15.56
2023-07-03T00:36:41.591Z,15.59
2023-07-03T00:37:41.575Z,15.59
2023-07-03T00:38:41.591Z,15.59
2023-07-03T00:39:41.550Z,15.59
2023-07-03T00:40:41.542Z,15.59
2023-07-03T00:41:41.530Z,15.59
2023-07-03T00:42:41.525Z,15.57
2023-07-03T00:43:41.503Z,15.54
2023-07-03T00:44:41.607Z,15.57
2023-07-03T00:45:41.680Z,15.57
2023-07-03T00:46:41.505Z,15.56
2023-07-03T00:47:41.508Z,15.56
2023-07-03T00:48:41.451Z,15.56
2023-07-03T00:49:41.441Z,15.53
2023-07-03T00:50:41.423Z,15.51
2023-07-03T00:51:41.416Z,15.51
2023-07-03T00:52:41.400Z,15.51
2023-07-03T00:53:41.405Z,15.50
2023-07-03T00:54:41.392Z,15.47
2023-07-03T00:55:41.375Z,15.43
2023-07-03T00:56:41.362Z,15.39
2023-07-03T00:57:41.354Z,15.38
2023-07-03T00:58:41.346Z,15.38
2023-07-03T00:59:41.342Z,15.31
2023-07-03T01:00:41.329Z,15.32
2023-07-03T01:01:41.308Z,15.36
2023-07-03T01:02:41.311Z,15.36
2023-07-03T01:03:41.286Z,15.41
2023-07-03T01:04:41.322Z,15.41
2023-07-03T01:05:41.374Z,15.41
2023-07-03T01:06:41.254Z,15.41
2023-07-03T01:07:41.242Z,15.39
2023-07-03T01:08:41.226Z,15.41
2023-07-03T01:09:41.224Z,15.41
2023-07-03T01:10:41.212Z,15.39
2023-07-03T01:11:41.204Z,15.39
2023-07-03T01:12:41.205Z,15.43
2023-07-03T01:13:41.176Z,15.39
2023-07-03T01:14:41.164Z,15.36
2023-07-03T01:15:41.216Z,15.38
2023-07-03T01:16:41.212Z,15.36
2023-07-03T01:17:41.167Z,15.34
2023-07-03T01:18:41.132Z,15.32
2023-07-03T01:19:41.116Z,15.35
2023-07-03T01:20:41.097Z,15.31
2023-07-03T01:21:43.644Z,15.32
2023-07-03T01:22:41.078Z,15.31
2023-07-03T01:23:41.079Z,15.29
2023-07-03T01:24:41.069Z,15.29
2023-07-03T01:25:41.056Z,15.32
2023-07-03T01:26:41.035Z,15.34
2023-07-03T01:27:41.038Z,15.35
2023-07-03T01:28:40.965Z,15.35
2023-07-03T01:29:40.958Z,15.35
2023-07-03T01:30:41.006Z,15.35
2023-07-03T01:31:41.037Z,15.36
2023-07-03T01:32:41.035Z,15.35
2023-07-03T01:33:40.973Z,15.35
2023-07-03T01:34:40.945Z,15.35
2023-07-03T01:35:40.949Z,15.34
2023-07-03T01:36:40.954Z,15.34
2023-07-03T01:37:40.918Z,15.32
2023-07-03T01:38:40.899Z,15.34
2023-07-03T01:39:40.901Z,15.32
2023-07-03T01:40:40.878Z,15.31
2023-07-03T01:41:40.884Z,15.29
2023-07-03T01:42:40.882Z,15.31
2023-07-03T01:43:40.883Z,15.28
2023-07-03T01:44:40.841Z,15.27
2023-07-03T01:45:40.861Z,15.28
2023-07-03T01:46:40.831Z,15.28
2023-07-03T01:47:40.888Z,15.23
2023-07-03T01:48:40.811Z,15.20
2023-07-03T01:49:40.792Z,15.17
2023-07-03T01:50:40.770Z,15.17
2023-07-03T01:51:40.772Z,15.17
2023-07-03T01:52:40.749Z,15.17
2023-07-03T01:53:40.754Z,15.17
2023-07-03T01:54:40.740Z,15.16
2023-07-03T01:55:40.737Z,15.13
2023-07-03T01:56:40.706Z,15.13
2023-07-03T01:57:40.752Z,15.11
2023-07-03T01:58:40.686Z,15.11
2023-07-03T01:59:40.680Z,15.13
2023-07-03T02:00:40.677Z,15.13
2023-07-03T02:01:40.750Z,15.14
2023-07-03T02:02:40.668Z,15.13
2023-07-03T02:03:40.701Z,15.13
2023-07-03T02:04:40.664Z,15.11
2023-07-03T02:05:40.627Z,15.09
2023-07-03T02:06:40.614Z,15.09
2023-07-03T02:07:40.599Z,15.10
2023-07-03T02:08:40.577Z,15.07
2023-07-03T02:09:40.591Z,15.03
2023-07-03T02:10:40.561Z,15.06
2023-07-03T02:11:40.565Z,15.03
2023-07-03T02:12:40.551Z,15.06
2023-07-03T02:13:40.526Z,15.06
2023-07-03T02:14:40.513Z,15.02
2023-07-03T02:15:40.509Z,15.01
2023-07-03T02:16:40.542Z,14.96
2023-07-03T02:17:40.571Z,14.96
2023-07-03T02:18:40.480Z,14.96
2023-07-03T02:19:40.460Z,14.95
2023-07-03T02:20:40.461Z,14.95
2023-07-03T02:21:40.455Z,14.94
2023-07-03T02:22:40.843Z,14.94
2023-07-03T02:23:40.428Z,14.88
2023-07-03T02:24:40.416Z,14.88
2023-07-03T02:25:40.401Z,14.86
2023-07-03T02:26:40.377Z,14.88
2023-07-03T02:27:40.376Z,14.81
2023-07-03T02:28:40.370Z,14.78
2023-07-03T02:29:40.360Z,14.75
2023-07-03T02:30:40.370Z,14.73
2023-07-03T02:31:40.337Z,14.69
2023-07-03T02:32:40.376Z,14.69
2023-07-03T02:33:40.312Z,14.68
2023-07-03T02:34:40.295Z,14.72
2023-07-03T02:35:40.293Z,14.73
2023-07-03T02:36:40.286Z,14.72
2023-07-03T02:37:40.282Z,14.73
2023-07-03T02:38:40.272Z,14.69
2023-07-03T02:39:40.244Z,14.70
2023-07-03T02:40:40.229Z,14.72
2023-07-03T02:41:40.232Z,14.73
2023-07-03T02:42:40.208Z,14.78
2023-07-03T02:43:40.205Z,14.80
2023-07-03T02:44:40.190Z,14.81
2023-07-03T02:45:40.180Z,14.81
2023-07-03T02:46:40.203Z,14.78
2023-07-03T02:47:40.207Z,14.73
2023-07-03T02:48:40.156Z,14.69
2023-07-03T02:49:40.226Z,14.69
2023-07-03T02:50:40.149Z,14.65
2023-07-03T02:51:40.125Z,14.68
2023-07-03T02:52:40.102Z,14.65
2023-07-03T02:53:40.100Z,14.64
2023-07-03T02:54:40.083Z,14.65
2023-07-03T02:55:40.072Z,14.65
2023-07-03T02:56:40.081Z,14.65
2023-07-03T02:57:40.011Z,14.64
2023-07-03T02:58:40.055Z,14.64
2023-07-03T02:59:40.056Z,14.64
2023-07-03T03:00:40.037Z,14.62
2023-07-03T03:01:40.004Z,14.60
2023-07-03T03:02:40.100Z,14.60
2023-07-03T03:03:40.020Z,14.57
2023-07-03T03:04:39.997Z,14.52
2023-07-03T03:05:39.979Z,14.47
2023-07-03T03:06:39.958Z,14.46
2023-07-03T03:07:39.895Z,14.47
2023-07-03T03:08:39.935Z,14.47
2023-07-03T03:09:39.922Z,14.45
2023-07-03T03:10:39.915Z,14.45
2023-07-03T03:11:39.907Z,14.40
2023-07-03T03:12:39.906Z,14.40
2023-07-03T03:13:39.834Z,14.37
2023-07-03T03:14:39.814Z,14.37
2023-07-03T03:15:39.809Z,14.33
2023-07-03T03:16:39.820Z,14.32
2023-07-03T03:17:39.822Z,14.32
2023-07-03T03:18:39.784Z,14.28
2023-07-03T03:19:39.759Z,14.28
2023-07-03T03:20:39.748Z,14.24
2023-07-03T03:21:39.755Z,14.24
2023-07-03T03:22:39.723Z,14.22
2023-07-03T03:23:39.740Z,14.21
2023-07-03T03:24:39.707Z,14.20
2023-07-03T03:25:39.705Z,14.18
2023-07-03T03:26:39.682Z,14.18
2023-07-03T03:27:39.678Z,14.18
2023-07-03T03:28:39.672Z,14.18
2023-07-03T03:29:39.658Z,14.17
2023-07-03T03:30:39.734Z,14.14
2023-07-03T03:31:39.635Z,14.14
2023-07-03T03:32:39.712Z,14.14
2023-07-03T03:33:39.622Z,14.10
2023-07-03T03:34:39.602Z,14.12
2023-07-03T03:35:39.591Z,14.12
2023-07-03T03:36:39.593Z,14.12
2023-07-03T03:37:39.568Z,14.14
2023-07-03T03:38:39.555Z,14.17
2023-07-03T03:39:39.556Z,14.18
2023-07-03T03:40:39.538Z,14.14
2023-07-03T03:41:39.532Z,14.14
2023-07-03T03:42:39.553Z,14.14
2023-07-03T03:43:39.539Z,14.15
2023-07-03T03:44:39.491Z,14.12
2023-07-03T03:45:39.480Z,14.10
2023-07-03T03:46:39.472Z,14.12
2023-07-03T03:47:39.526Z,14.14
2023-07-03T03:48:39.525Z,14.14
2023-07-03T03:49:39.451Z,14.12
2023-07-03T03:50:39.433Z,14.12
2023-07-03T03:51:39.420Z,14.14
2023-07-03T03:52:39.412Z,14.12
2023-07-03T03:53:39.406Z,14.15
2023-07-03T03:54:39.395Z,14.14
2023-07-03T03:55:39.372Z,14.14
2023-07-03T03:56:39.360Z,14.09
2023-07-03T03:57:39.350Z,14.10
2023-07-03T03:58:39.337Z,14.09
2023-07-03T03:59:39.343Z,14.09
2023-07-03T04:00:39.343Z,14.09
2023-07-03T04:01:39.328Z,14.10
2023-07-03T04:02:39.386Z,14.10
2023-07-03T04:03:39.324Z,14.10
2023-07-03T04:04:39.335Z,14.04
2023-07-03T04:05:39.268Z,14.04
2023-07-03T04:06:39.269Z,14.03
2023-07-03T04:07:39.238Z,14.03
2023-07-03T04:08:39.233Z,14.04
2023-07-03T04:09:39.219Z,14.04
2023-07-03T04:10:39.209Z,14.07
2023-07-03T04:11:39.203Z,14.06
2023-07-03T04:12:39.189Z,14.00
2023-07-03T04:13:39.229Z,13.99
2023-07-03T04:14:39.201Z,14.04
2023-07-03T04:15:39.155Z,14.04
2023-07-03T04:16:39.159Z,14.03
2023-07-03T04:17:39.200Z,14.03
2023-07-03T04:18:39.121Z,13.97
2023-07-03T04:19:39.119Z,13.97
2023-07-03T04:20:39.091Z,14.02
2023-07-03T04:21:39.094Z,13.97
2023-07-03T04:22:39.073Z,14.00
2023-07-03T04:23:39.063Z,13.99
2023-07-03T04:24:39.074Z,13.99
2023-07-03T04:25:39.051Z,13.96
2023-07-03T04:26:39.024Z,13.99
2023-07-03T04:27:39.035Z,14.02
2023-07-03T04:28:39.003Z,14.03
2023-07-03T04:29:39.018Z,14.00
2023-07-03T04:30:38.991Z,14.00
2023-07-03T04:31:39.071Z,14.03
2023-07-03T04:32:38.972Z,14.03
2023-07-03T04:33:38.965Z,14.02
2023-07-03T04:34:38.951Z,13.97
2023-07-03T04:35:38.947Z,13.96
2023-07-03T04:36:38.930Z,13.96
2023-07-03T04:37:38.916Z,13.96
2023-07-03T04:38:38.893Z,13.92
2023-07-03T04:39:38.894Z,13.97
2023-07-03T04:40:38.889Z,13.96
2023-07-03T04:41:38.877Z,13.96
2023-07-03T04:42:38.853Z,13.97
2023-07-03T04:43:38.846Z,13.99
2023-07-03T04:44:38.843Z,13.99
2023-07-03T04:45:38.823Z,14.00
2023-07-03T04:46:38.868Z,13.99
2023-07-03T04:47:38.983Z,14.02
2023-07-03T04:48:38.801Z,14.00
2023-07-03T04:49:38.783Z,14.02
2023-07-03T04:50:38.760Z,14.04
2023-07-03T04:51:38.758Z,14.09
2023-07-03T04:52:38.741Z,14.09
2023-07-03T04:53:38.737Z,14.09
2023-07-03T04:54:38.728Z,14.07
2023-07-03T04:55:38.718Z,14.10
2023-07-03T04:56:38.699Z,14.12
2023-07-03T04:57:38.689Z,14.10
2023-07-03T04:58:38.678Z,14.07
2023-07-03T04:59:38.664Z,14.06
2023-07-03T05:00:38.670Z,14.06
2023-07-03T05:01:38.707Z,14.04
2023-07-03T05:02:38.684Z,14.04
2023-07-03T05:03:38.645Z,14.06
2023-07-03T05:04:38.629Z,14.06
2023-07-03T05:05:38.603Z,14.04
2023-07-03T05:06:38.597Z,14.06
2023-07-03T05:07:38.583Z,14.06
2023-07-03T05:08:38.639Z,14.07
2023-07-03T05:09:38.553Z,14.06
2023-07-03T05:10:38.560Z,14.06
2023-07-03T05:11:38.537Z,14.07
2023-07-03T05:12:38.542Z,14.03
2023-07-03T05:13:38.514Z,14.02
2023-07-03T05:14:38.518Z,14.02
2023-07-03T05:15:38.511Z,14.03
2023-07-03T05:16:38.527Z,14.03
2023-07-03T05:17:38.547Z,14.07
2023-07-03T05:18:38.524Z,14.10
2023-07-03T05:19:38.472Z,14.12
2023-07-03T05:20:38.447Z,14.15
2023-07-03T05:21:38.474Z,14.20
2023-07-03T05:22:38.429Z,14.21
2023-07-03T05:23:38.441Z,14.24
2023-07-03T05:24:38.423Z,14.25
2023-07-03T05:25:38.440Z,14.27
2023-07-03T05:26:38.410Z,14.25
2023-07-03T05:27:38.362Z,14.27
2023-07-03T05:28:38.372Z,14.28
2023-07-03T05:29:38.348Z,14.25
2023-07-03T05:30:38.344Z,14.24
2023-07-03T05:31:38.354Z,14.25
2023-07-03T05:32:38.350Z,14.27
2023-07-03T05:33:38.294Z,14.25
2023-07-03T05:34:38.290Z,14.28
2023-07-03T05:35:49.684Z,14.29
2023-07-03T05:36:38.276Z,14.32
2023-07-03T05:37:38.262Z,14.33
2023-07-03T05:38:38.244Z,14.33
2023-07-03T05:39:38.259Z,14.32
2023-07-03T05:40:38.230Z,14.32
2023-07-03T05:41:38.229Z,14.33
2023-07-03T05:42:38.204Z,14.32
2023-07-03T05:43:38.196Z,14.33
2023-07-03T05:44:38.256Z,14.36
2023-07-03T05:45:38.160Z,14.36
2023-07-03T05:46:38.383Z,14.37
2023-07-03T05:47:38.153Z,14.40
2023-07-03T05:48:38.145Z,14.37
2023-07-03T05:49:38.119Z,14.40
2023-07-03T05:50:38.121Z,14.43
2023-07-03T05:51:38.104Z,14.46
2023-07-03T05:52:38.098Z,14.46
2023-07-03T05:53:38.087Z,14.45
2023-07-03T05:54:38.076Z,14.43
2023-07-03T05:55:38.075Z,14.42
2023-07-03T05:56:38.054Z,14.43
2023-07-03T05:57:38.040Z,14.40
2023-07-03T05:58:38.041Z,14.40
2023-07-03T05:59:38.041Z,14.42
2023-07-03T06:00:38.019Z,14.43
2023-07-03T06:01:38.053Z,14.45
2023-07-03T06:02:38.066Z,14.42
2023-07-03T06:03:38.005Z,14.43
2023-07-03T06:04:38.059Z,14.45
2023-07-03T06:05:37.958Z,14.45
2023-07-03T06:06:37.953Z,14.47
2023-07-03T06:07:37.932Z,14.51
2023-07-03T06:08:37.931Z,14.55
2023-07-03T06:09:37.912Z,14.57
2023-07-03T06:10:37.900Z,14.61
2023-07-03T06:11:37.891Z,14.65
2023-07-03T06:12:37.885Z,14.70
2023-07-03T06:13:37.932Z,14.81
2023-07-03T06:14:37.863Z,14.91
2023-07-03T06:15:37.853Z,14.95
2023-07-03T06:16:37.859Z,14.99
2023-07-03T06:17:37.898Z,15.07
2023-07-03T06:18:37.817Z,15.11
2023-07-03T06:19:37.803Z,15.14
2023-07-03T06:20:37.798Z,15.17
2023-07-03T06:21:37.783Z,15.21
2023-07-03T06:22:37.776Z,15.25
2023-07-03T06:23:37.764Z,15.27
2023-07-03T06:24:37.764Z,15.29
2023-07-03T06:25:37.738Z,15.36
2023-07-03T06:26:37.722Z,15.35
2023-07-03T06:27:37.755Z,15.35
2023-07-03T06:28:37.705Z,15.36
2023-07-03T06:29:37.694Z,15.38
2023-07-03T06:30:37.736Z,15.44
2023-07-03T06:31:37.769Z,15.53
2023-07-03T06:32:37.702Z,15.57
2023-07-03T06:33:37.645Z,15.60
2023-07-03T06:34:37.636Z,15.64
2023-07-03T06:35:37.722Z,15.65
2023-07-03T06:36:37.628Z,15.64
2023-07-03T06:37:38.092Z,15.64
2023-07-03T06:38:37.595Z,15.57
2023-07-03T06:39:37.589Z,15.54
2023-07-03T06:40:37.606Z,15.53
2023-07-03T06:41:37.575Z,15.51
2023-07-03T06:42:37.587Z,15.60
2023-07-03T06:43:37.533Z,15.69
2023-07-03T06:44:37.532Z,15.74
2023-07-03T06:45:37.530Z,15.76
2023-07-03T06:46:37.516Z,15.76
2023-07-03T06:47:37.555Z,15.80
2023-07-03T06:48:37.502Z,15.76
2023-07-03T06:49:37.467Z,15.71
2023-07-03T06:50:37.466Z,15.68
2023-07-03T06:51:37.454Z,15.68
2023-07-03T06:52:37.444Z,15.68
2023-07-03T06:53:37.440Z,15.68
2023-07-03T06:54:37.440Z,15.68
2023-07-03T06:55:37.414Z,15.72
2023-07-03T06:56:37.399Z,15.76
2023-07-03T06:57:37.381Z,15.86
2023-07-03T06:58:37.391Z,15.92
2023-07-03T06:59:37.375Z,15.96
2023-07-03T07:00:37.367Z,15.97
2023-07-03T07:01:37.370Z,16.02
2023-07-03T07:02:37.394Z,16.02
2023-07-03T07:03:37.433Z,16.04
2023-07-03T07:04:37.360Z,16.04
2023-07-03T07:05:37.370Z,16.04
2023-07-03T07:06:37.303Z,15.93
2023-07-03T07:07:37.292Z,15.92
2023-07-03T07:08:37.277Z,15.86
2023-07-03T07:09:37.260Z,15.84
2023-07-03T07:10:37.290Z,15.86
2023-07-03T07:11:37.278Z,15.90
2023-07-03T07:12:37.245Z,15.94
2023-07-03T07:13:37.211Z,16.05
2023-07-03T07:14:37.204Z,16.15
2023-07-03T07:15:37.219Z,16.23
2023-07-03T07:16:37.203Z,16.17
2023-07-03T07:17:50.970Z,16.15
2023-07-03T07:18:37.190Z,16.17
2023-07-03T07:19:37.150Z,16.21
2023-07-03T07:20:37.143Z,16.27
2023-07-03T07:21:37.145Z,16.31
2023-07-03T07:22:37.140Z,16.38
2023-07-03T07:23:37.113Z,16.39
2023-07-03T07:24:37.103Z,16.41
2023-07-03T07:25:37.092Z,16.39
2023-07-03T07:26:37.080Z,16.31
2023-07-03T07:27:37.082Z,16.21
2023-07-03T07:28:37.055Z,16.15
2023-07-03T07:29:37.044Z,16.20
2023-07-03T07:30:37.082Z,16.21
2023-07-03T07:31:38.337Z,16.21
2023-07-03T07:32:37.057Z,16.24
2023-07-03T07:33:37.033Z,16.24
2023-07-03T07:34:37.036Z,16.30
2023-07-03T07:35:36.985Z,16.33
2023-07-03T07:36:36.974Z,16.31
2023-07-03T07:37:36.955Z,16.33
2023-07-03T07:38:36.950Z,16.35
2023-07-03T07:39:36.939Z,16.33
2023-07-03T07:40:36.921Z,16.28
2023-07-03T07:41:36.938Z,16.27
2023-07-03T07:42:36.914Z,16.30
2023-07-03T07:43:36.885Z,16.28
2023-07-03T07:44:36.978Z,16.28
2023-07-03T07:45:36.878Z,16.28
2023-07-03T07:46:36.907Z,16.31
2023-07-03T07:47:36.951Z,16.35
2023-07-03T07:48:36.846Z,16.42
2023-07-03T07:49:36.820Z,16.45
2023-07-03T07:50:36.840Z,16.43
2023-07-03T07:51:36.807Z,16.43
2023-07-03T07:52:36.799Z,16.43
2023-07-03T07:53:36.791Z,16.45
2023-07-03T07:54:36.802Z,16.45
2023-07-03T07:55:36.764Z,16.46
2023-07-03T07:56:36.761Z,16.45
2023-07-03T07:57:36.754Z,16.46
2023-07-03T07:58:36.790Z,16.43
2023-07-03T07:59:36.724Z,16.43
2023-07-03T08:00:36.775Z,16.41
2023-07-03T08:01:36.827Z,16.42
2023-07-03T08:02:36.778Z,16.43
2023-07-03T08:03:36.709Z,16.45
2023-07-03T08:04:36.793Z,16.42
2023-07-03T08:05:36.681Z,16.41
2023-07-03T08:06:36.650Z,16.42
2023-07-03T08:07:36.644Z,16.43
2023-07-03T08:08:36.639Z,16.45
2023-07-03T08:09:36.606Z,16.46
2023-07-03T08:10:36.605Z,16.46
2023-07-03T08:11:36.605Z,16.49
2023-07-03T08:12:36.592Z,16.52
2023-07-03T08:13:36.588Z,16.56
2023-07-03T08:14:36.560Z,16.60
2023-07-03T08:15:36.573Z,16.61
2023-07-03T08:16:36.603Z,16.61
2023-07-03T08:17:36.601Z,16.60
2023-07-03T08:18:36.519Z,16.58
2023-07-03T08:19:36.505Z,16.58
2023-07-03T08:20:36.497Z,16.61
2023-07-03T08:21:36.481Z,16.61
2023-07-03T08:22:36.475Z,16.63
2023-07-03T08:23:36.473Z,16.63
2023-07-03T08:24:36.450Z,16.63
2023-07-03T08:25:36.473Z,16.64
2023-07-03T08:26:36.427Z,16.67
2023-07-03T08:27:36.416Z,16.66
2023-07-03T08:28:36.431Z,16.70
2023-07-03T08:29:36.397Z,16.70
2023-07-03T08:30:36.422Z,16.71
2023-07-03T08:31:36.416Z,16.73
2023-07-03T08:32:36.521Z,16.71
2023-07-03T08:33:36.463Z,16.73
2023-07-03T08:34:36.464Z,16.73
2023-07-03T08:37:36.311Z,16.71
2023-07-03T08:38:37.934Z,16.71
2023-07-03T08:39:36.283Z,16.70
2023-07-03T08:40:36.280Z,16.68
2023-07-03T08:41:36.289Z,16.63
2023-07-03T08:42:36.265Z,16.61
2023-07-03T08:43:36.249Z,16.57
2023-07-03T08:44:36.923Z,16.58
2023-07-03T08:45:36.229Z,16.52
2023-07-03T08:46:36.271Z,16.48
2023-07-03T08:47:36.314Z,16.43
2023-07-03T08:48:36.224Z,16.41
2023-07-03T08:49:36.188Z,16.42
2023-07-03T08:50:37.892Z,16.39
2023-07-03T08:51:36.150Z,16.33
2023-07-03T08:52:36.149Z,16.31
2023-07-03T08:53:36.149Z,16.30
2023-07-03T08:54:36.146Z,16.27
2023-07-03T08:55:36.120Z,16.24
2023-07-03T08:56:36.120Z,16.23
2023-07-03T08:57:38.589Z,16.20
2023-07-03T08:58:36.088Z,16.21
2023-07-03T08:59:36.092Z,16.20
2023-07-03T09:00:36.060Z,16.14
2023-07-03T09:01:36.071Z,16.14
2023-07-03T09:02:36.118Z,16.09
2023-07-03T09:03:36.186Z,16.11
2023-07-03T09:04:36.073Z,16.08
2023-07-03T09:05:36.025Z,16.07
2023-07-03T09:06:36.015Z,16.05
2023-07-03T09:07:35.993Z,16.04
2023-07-03T09:08:35.998Z,16.02
2023-07-03T09:09:35.980Z,15.96
2023-07-03T09:10:35.952Z,15.92
2023-07-03T09:11:35.947Z,15.92
2023-07-03T09:12:35.947Z,15.87
2023-07-03T09:13:35.913Z,15.86
2023-07-03T09:14:35.918Z,15.86
2023-07-03T09:15:35.920Z,15.84
2023-07-03T09:16:35.890Z,15.80
2023-07-03T09:17:35.954Z,15.84
2023-07-03T09:18:38.413Z,15.84
2023-07-03T09:19:35.852Z,15.84
2023-07-03T09:20:37.145Z,15.84
2023-07-03T09:21:35.844Z,15.82
2023-07-03T09:22:35.844Z,15.82
2023-07-03T09:23:35.816Z,15.80
2023-07-03T09:24:35.801Z,15.80
2023-07-03T09:25:37.822Z,15.78
2023-07-03T09:26:35.770Z,15.74
2023-07-03T09:27:36.503Z,15.71
2023-07-03T09:28:35.764Z,15.69
2023-07-03T09:29:35.764Z,15.69
2023-07-03T09:30:36.481Z,15.68
2023-07-03T09:31:35.753Z,15.65
2023-07-03T09:32:36.034Z,15.56
2023-07-03T09:33:35.701Z,15.51
2023-07-03T09:34:35.683Z,15.47
2023-07-03T09:35:35.868Z,15.41
2023-07-03T09:36:35.669Z,15.34
2023-07-03T09:37:35.649Z,15.32
2023-07-03T09:38:35.639Z,15.27
2023-07-03T09:39:35.642Z,15.19
2023-07-03T09:40:35.728Z,15.13
2023-07-03T09:41:35.619Z,15.13
2023-07-03T09:42:36.384Z,15.03
2023-07-03T09:43:35.620Z,14.98
2023-07-03T09:44:35.574Z,14.96
2023-07-03T09:45:35.598Z,14.98
2023-07-03T09:46:35.553Z,14.94
2023-07-03T09:47:35.916Z,14.94
2023-07-03T09:48:35.598Z,14.89
2023-07-03T09:49:35.531Z,14.89
2023-07-03T09:50:35.516Z,14.94
2023-07-03T09:51:35.511Z,14.92
2023-07-03T09:52:35.522Z,14.94
2023-07-03T09:53:35.489Z,14.95
2023-07-03T09:54:35.475Z,14.99
2023-07-03T09:55:35.465Z,14.99
2023-07-03T09:56:35.452Z,14.99
2023-07-03T09:57:35.440Z,15.02
2023-07-03T09:58:35.427Z,15.03
2023-07-03T09:59:35.443Z,15.06
2023-07-03T10:00:35.439Z,15.07
2023-07-03T10:03:35.401Z,15.19
2023-07-03T10:06:35.358Z,15.25
2023-07-03T10:07:35.457Z,15.23
2023-07-03T10:08:35.473Z,15.21
2023-07-03T10:11:35.310Z,15.29
2023-07-03T10:12:35.457Z,15.29
2023-07-03T10:13:35.270Z,15.31
2023-07-03T10:14:35.263Z,15.35
2023-07-03T10:15:35.276Z,15.39
2023-07-03T10:16:35.247Z,15.44
2023-07-03T10:17:35.431Z,15.53
2023-07-03T10:18:35.221Z,15.62
2023-07-03T10:19:35.208Z,15.76
2023-07-03T10:20:35.183Z,15.84
2023-07-03T10:21:35.185Z,15.97
2023-07-03T10:22:35.167Z,16.07
2023-07-03T10:23:35.167Z,16.14
2023-07-03T10:24:35.156Z,16.17
2023-07-03T10:25:35.136Z,16.25
2023-07-03T10:26:35.118Z,16.33
2023-07-03T10:27:35.120Z,16.38
2023-07-03T10:28:35.100Z,16.35
2023-07-03T10:29:35.094Z,16.41
2023-07-03T10:30:35.102Z,16.41
2023-07-03T10:31:35.091Z,16.42
2023-07-03T10:32:35.099Z,16.45
2023-07-03T10:33:35.060Z,16.48
2023-07-03T10:34:35.035Z,16.50
2023-07-03T10:35:35.047Z,16.66
2023-07-03T10:36:35.019Z,16.75
2023-07-03T10:37:35.009Z,16.83
2023-07-03T10:38:34.993Z,16.89
2023-07-03T10:39:34.985Z,16.94
2023-07-03T10:40:34.979Z,16.96
2023-07-03T10:41:34.970Z,16.94
2023-07-03T10:42:34.953Z,16.93
2023-07-03T10:43:34.943Z,16.86
2023-07-03T10:44:34.928Z,16.83
2023-07-03T10:45:34.967Z,16.79
2023-07-03T10:46:34.990Z,16.79
2023-07-03T10:47:34.916Z,16.76
2023-07-03T10:48:34.894Z,16.76
2023-07-03T10:49:34.880Z,16.75
2023-07-03T10:50:34.863Z,16.71
2023-07-03T10:51:34.860Z,16.70
2023-07-03T10:52:34.840Z,16.71
2023-07-03T10:53:34.842Z,16.71
2023-07-03T10:54:34.838Z,16.70
2023-07-03T10:55:34.832Z,16.67
2023-07-03T10:56:34.795Z,16.70
2023-07-03T10:57:35.756Z,16.70
2023-07-03T10:58:34.776Z,16.75
2023-07-03T10:59:34.786Z,16.71
2023-07-03T11:00:34.760Z,16.78
2023-07-03T11:01:34.787Z,16.79
2023-07-03T11:02:34.799Z,16.81
2023-07-03T11:03:34.782Z,16.85
2023-07-03T11:04:34.758Z,16.88
2023-07-03T11:05:34.717Z,16.89
2023-07-03T11:06:34.733Z,16.88
2023-07-03T11:07:34.686Z,16.88
2023-07-03T11:08:34.687Z,16.85
2023-07-03T11:09:34.736Z,16.82
2023-07-03T11:10:34.697Z,16.76
2023-07-03T11:11:34.653Z,16.67
2023-07-03T11:12:34.635Z,16.64
2023-07-03T11:13:34.637Z,16.58
2023-07-03T11:14:34.612Z,16.52
2023-07-03T11:15:34.596Z,16.48
2023-07-03T11:16:34.605Z,16.42
2023-07-03T11:17:34.975Z,16.33
2023-07-03T11:23:34.570Z,16.01
2023-07-03T11:24:34.502Z,15.97
2023-07-03T11:25:35.051Z,15.93
2023-07-03T11:28:34.459Z,15.93
2023-07-03T11:29:34.446Z,15.96
2023-07-03T11:30:34.437Z,15.96
2023-07-03T11:31:34.497Z,16.01
2023-07-03T11:32:34.440Z,16.07
2023-07-03T11:36:43.872Z,16.39
2023-07-03T11:40:34.594Z,16.66
2023-07-03T11:43:34.313Z,16.93
2023-07-03T11:44:34.283Z,16.94
2023-07-03T11:45:34.285Z,17.00
2023-07-03T11:46:34.276Z,16.98
2023-07-03T11:47:34.294Z,17.06
2023-07-03T11:48:34.233Z,17.11
2023-07-03T11:49:34.239Z,17.14
2023-07-03T11:50:34.211Z,17.16
2023-07-03T11:51:34.228Z,17.16
2023-07-03T11:52:34.829Z,17.22
2023-07-03T11:53:34.200Z,17.25
2023-07-03T11:54:34.188Z,17.22
2023-07-03T11:55:34.162Z,17.23
2023-07-03T11:56:34.166Z,17.25
2023-07-03T11:57:34.202Z,17.25
2023-07-03T11:58:34.131Z,17.22
2023-07-03T11:59:34.138Z,17.21
2023-07-03T12:00:34.113Z,17.16
2023-07-03T12:01:34.157Z,17.12
2023-07-03T12:02:34.105Z,17.07
2023-07-03T12:03:34.126Z,17.03
2023-07-03T12:04:34.066Z,17.00
2023-07-03T12:05:34.061Z,16.98
2023-07-03T12:06:34.061Z,16.96
2023-07-03T12:07:34.103Z,16.97
2023-07-03T12:08:34.024Z,16.97
2023-07-03T12:09:34.013Z,16.96
2023-07-03T12:10:34.008Z,16.91
2023-07-03T12:11:34.008Z,16.93
2023-07-03T12:12:33.981Z,16.91
2023-07-03T12:13:34.069Z,16.88
2023-07-03T12:14:33.953Z,16.86
2023-07-03T12:15:33.944Z,16.86
2023-07-03T12:16:34.012Z,16.89
2023-07-03T12:17:34.012Z,16.89
2023-07-03T12:18:33.922Z,16.86
2023-07-03T12:19:33.912Z,16.89
2023-07-03T12:20:33.887Z,16.89
2023-07-03T12:21:33.890Z,16.88
2023-07-03T12:22:33.904Z,16.88
2023-07-03T12:23:34.753Z,16.86
2023-07-03T12:24:33.856Z,16.86
2023-07-03T12:25:33.853Z,16.88
2023-07-03T12:26:33.827Z,16.85
2023-07-03T12:27:33.819Z,16.86
2023-07-03T12:28:33.808Z,16.85
2023-07-03T12:29:33.919Z,16.79
2023-07-03T12:30:33.790Z,16.82
2023-07-03T12:31:33.872Z,16.79
2023-07-03T12:32:33.874Z,16.78
2023-07-03T12:33:33.752Z,16.76
2023-07-03T12:34:33.738Z,16.71
2023-07-03T12:35:33.741Z,16.70
2023-07-03T12:36:35.000Z,16.70
2023-07-03T12:37:33.706Z,16.68
2023-07-03T12:38:33.687Z,16.68
2023-07-03T12:39:33.691Z,16.70
2023-07-03T12:40:33.678Z,16.71
2023-07-03T12:41:33.688Z,16.71
2023-07-03T12:42:33.646Z,16.73
2023-07-03T12:43:33.648Z,16.76
2023-07-03T12:44:33.620Z,16.81
2023-07-03T12:45:33.622Z,16.85
2023-07-03T12:46:33.661Z,16.89
2023-07-03T12:47:33.629Z,16.96
2023-07-03T12:48:33.582Z,17.06
2023-07-03T12:49:33.579Z,17.14
2023-07-03T12:50:33.553Z,17.23
2023-07-03T12:51:33.554Z,17.31
2023-07-03T12:52:33.547Z,17.48
2023-07-03T12:53:33.679Z,17.62
2023-07-03T12:54:33.520Z,17.78
2023-07-03T12:55:33.512Z,17.95
2023-07-03T12:56:33.494Z,18.02
2023-07-03T12:57:33.485Z,18.14
2023-07-03T12:58:33.529Z,18.20
2023-07-03T12:59:33.477Z,18.26
2023-07-03T13:00:33.498Z,18.32
2023-07-03T13:01:33.483Z,18.35
2023-07-03T13:02:33.468Z,18.45
2023-07-03T13:03:33.417Z,18.51
2023-07-03T13:04:33.462Z,18.58
2023-07-03T13:05:33.564Z,18.63
2023-07-03T13:06:33.389Z,18.73
2023-07-03T13:07:33.376Z,18.80
2023-07-03T13:08:33.369Z,18.82
2023-07-03T13:09:33.386Z,18.78
2023-07-03T13:10:33.336Z,18.73
2023-07-03T13:11:33.333Z,18.67
2023-07-03T13:12:33.338Z,18.67
2023-07-03T13:13:33.385Z,18.63
2023-07-03T13:14:33.297Z,18.58
2023-07-03T13:15:33.288Z,18.55